createdAt,value
2022-09-14T00:01:47.427Z,14.69
2022-09-14T00:04:18.076Z,14.91
2022-09-14T00:06:49.883Z,15.00
2022-09-14T00:09:21.561Z,14.88
2022-09-14T00:11:51.984Z,14.91
2022-09-14T00:14:21.743Z,14.90
2022-09-14T00:16:52.097Z,14.82
2022-09-14T00:19:22.965Z,14.88
2022-09-14T00:21:56.211Z,14.95
2022-09-14T00:24:26.978Z,15.12
2022-09-14T00:26:56.107Z,15.02
2022-09-14T00:29:26.188Z,14.90
2022-09-14T00:31:55.562Z,15.14
2022-09-14T00:34:25.211Z,15.27
2022-09-14T00:36:55.760Z,15.27
2022-09-14T00:39:26.004Z,15.47
2022-09-14T00:41:55.524Z,15.57
2022-09-14T00:45:00.461Z,15.51
2022-09-14T00:47:32.968Z,15.58
2022-09-14T00:50:04.512Z,15.75
2022-09-14T00:52:38.531Z,15.72
2022-09-14T00:55:10.759Z,15.69
2022-09-14T00:57:43.887Z,15.75
2022-09-14T01:00:15.988Z,15.83
2022-09-14T01:02:45.495Z,15.73
2022-09-14T01:05:14.916Z,15.89
2022-09-14T01:08:08.700Z,16.05
2022-09-14T01:10:58.276Z,16.18
2022-09-14T01:13:34.837Z,15.94
2022-09-14T01:16:11.694Z,16.17
2022-09-14T01:18:45.853Z,16.19
2022-09-14T01:21:20.049Z,16.07
2022-09-14T01:23:57.956Z,16.09
2022-09-14T01:26:51.794Z,16.20
2022-09-14T01:29:26.295Z,16.21
2022-09-14T01:32:00.878Z,16.46
2022-09-14T01:34:33.759Z,16.38
2022-09-14T01:37:12.955Z,16.51
2022-09-14T01:39:46.257Z,16.39
2022-09-14T01:42:18.768Z,16.24
2022-09-14T01:44:53.831Z,16.41
2022-09-14T01:47:27.514Z,16.37
2022-09-14T01:50:04.160Z,16.44
2022-09-14T01:52:41.036Z,16.46
2022-09-14T01:55:14.214Z,16.30
2022-09-14T01:57:47.239Z,16.32
2022-09-14T02:00:21.554Z,16.16
2022-09-14T02:02:55.403Z,16.16
2022-09-14T02:05:32.750Z,16.10
2022-09-14T02:08:02.230Z,16.04
2022-09-14T02:10:31.435Z,16.06
2022-09-14T02:13:00.396Z,15.96
2022-09-14T02:15:30.966Z,16.07
2022-09-14T02:18:00.160Z,16.06
2022-09-14T02:20:32.537Z,15.89
2022-09-14T02:23:01.828Z,15.94
2022-09-14T02:25:30.762Z,16.05
2022-09-14T02:27:59.634Z,16.03
2022-09-14T02:35:39.385Z,15.80
2022-09-14T02:38:20.194Z,15.93
2022-09-14T02:40:57.362Z,15.81
2022-09-14T02:43:34.567Z,15.88
2022-09-14T02:46:10.989Z,15.82
2022-09-14T02:48:46.636Z,15.69
2022-09-14T02:51:26.314Z,15.80
2022-09-14T02:54:00.934Z,15.77
2022-09-14T02:56:31.057Z,15.81
2022-09-14T02:59:00.787Z,15.73
2022-09-14T03:01:29.857Z,15.81
2022-09-14T03:03:58.948Z,15.48
2022-09-14T03:06:29.550Z,15.64
2022-09-14T03:08:58.655Z,15.42
2022-09-14T03:11:27.695Z,15.70
2022-09-14T03:13:56.766Z,15.43
2022-09-14T03:16:25.769Z,15.47
2022-09-14T03:18:54.718Z,15.60
2022-09-14T03:21:24.035Z,15.57
2022-09-14T03:23:56.983Z,15.43
2022-09-14T03:26:29.129Z,15.47
2022-09-14T03:29:00.127Z,15.53
2022-09-14T03:31:30.018Z,15.42
2022-09-14T03:34:01.635Z,15.34
2022-09-14T03:36:35.299Z,15.15
2022-09-14T03:39:05.711Z,15.49
2022-09-14T03:41:35.056Z,15.28
2022-09-14T03:44:04.312Z,15.29
2022-09-14T03:46:33.972Z,15.46
2022-09-14T03:49:03.049Z,15.50
2022-09-14T03:51:32.112Z,15.42
2022-09-14T03:54:01.121Z,15.33
2022-09-14T03:56:31.993Z,15.25
2022-09-14T03:59:01.160Z,15.43
2022-09-14T04:01:30.043Z,15.37
2022-09-14T04:03:59.171Z,15.21
2022-09-14T04:06:28.215Z,15.21
2022-09-14T04:08:57.003Z,15.24
2022-09-14T04:11:28.312Z,15.34
2022-09-14T04:14:01.652Z,15.43
2022-09-14T04:16:31.177Z,15.39
2022-09-14T04:19:00.241Z,15.46
2022-09-14T04:21:29.114Z,15.64
2022-09-14T04:24:15.965Z,15.65
2022-09-14T04:26:46.531Z,15.72
2022-09-14T04:29:17.092Z,15.78
2022-09-14T04:31:46.141Z,15.70
2022-09-14T04:34:15.488Z,15.86
2022-09-14T04:36:44.918Z,16.00
2022-09-14T04:39:15.270Z,15.98
2022-09-14T04:41:44.429Z,16.07
2022-09-14T04:44:13.870Z,16.08
2022-09-14T04:46:46.808Z,16.30
2022-09-14T04:49:18.852Z,16.25
2022-09-14T04:51:48.123Z,16.43
2022-09-14T04:54:18.811Z,16.22
2022-09-14T04:56:48.265Z,16.34
2022-09-14T04:59:17.397Z,16.18
2022-09-14T05:01:48.887Z,16.32
2022-09-14T05:04:18.926Z,16.36
2022-09-14T05:06:49.756Z,16.50
2022-09-14T05:09:19.795Z,16.55
2022-09-14T05:11:52.148Z,16.48
2022-09-14T05:14:21.205Z,16.25
2022-09-14T05:16:52.010Z,16.62
2022-09-14T05:19:20.803Z,16.50
2022-09-14T05:21:49.809Z,15.96
2022-09-14T05:24:20.455Z,16.26
2022-09-14T05:26:49.575Z,16.41
2022-09-14T05:29:20.069Z,16.39
2022-09-14T05:31:50.978Z,16.57
2022-09-14T05:34:20.638Z,16.56
2022-09-14T05:36:49.505Z,16.43
2022-09-14T05:39:23.069Z,16.31
2022-09-14T05:41:52.403Z,16.63
2022-09-14T05:44:21.877Z,16.63
2022-09-14T05:46:52.245Z,16.56
2022-09-14T05:49:21.104Z,16.60
2022-09-14T05:51:50.322Z,16.46
2022-09-14T05:54:19.459Z,16.54
2022-09-14T05:56:48.363Z,16.58
2022-09-14T05:59:17.718Z,16.84
2022-09-14T06:01:46.640Z,16.85
2022-09-14T06:04:16.943Z,16.96
2022-09-14T06:07:01.478Z,16.85
2022-09-14T06:09:34.995Z,17.02
2022-09-14T06:12:04.377Z,17.00
2022-09-14T06:14:33.800Z,17.11
2022-09-14T06:17:03.081Z,17.22
2022-09-14T06:19:33.506Z,17.43
2022-09-14T06:22:02.999Z,17.78
2022-09-14T06:24:33.345Z,17.99
2022-09-14T06:27:02.449Z,17.92
2022-09-14T06:29:31.318Z,17.76
2022-09-14T06:32:00.331Z,17.78
2022-09-14T06:34:30.466Z,18.02
2022-09-14T06:37:00.742Z,17.96
2022-09-14T06:39:30.050Z,17.98
2022-09-14T06:41:58.989Z,17.89
2022-09-14T06:44:31.225Z,18.12
2022-09-14T06:47:00.259Z,17.62
2022-09-14T06:49:29.147Z,16.86
2022-09-14T06:52:01.100Z,16.67
2022-09-14T06:54:30.172Z,16.83
2022-09-14T06:56:59.427Z,16.78
2022-09-14T06:59:28.457Z,16.80
2022-09-14T07:01:57.556Z,16.56
2022-09-14T07:04:26.683Z,17.05
2022-09-14T07:06:55.490Z,17.01
2022-09-14T07:09:25.804Z,17.50
2022-09-14T07:11:55.757Z,17.61
2022-09-14T07:14:24.764Z,17.92
2022-09-14T07:16:53.570Z,18.12
2022-09-14T07:19:22.578Z,17.75
2022-09-14T07:21:53.990Z,18.08
2022-09-14T07:24:24.407Z,18.25
2022-09-14T07:26:53.351Z,18.10
2022-09-14T07:29:22.914Z,17.81
2022-09-14T07:31:54.146Z,18.08
2022-09-14T07:34:23.927Z,18.10
2022-09-14T07:36:52.910Z,18.05
2022-09-14T07:39:22.005Z,18.17
2022-09-14T07:41:52.483Z,18.53
2022-09-14T07:44:21.544Z,19.37
2022-09-14T07:46:50.429Z,19.28
2022-09-14T07:49:19.376Z,19.98
2022-09-14T07:51:48.964Z,19.56
2022-09-14T07:54:19.412Z,19.30
2022-09-14T07:56:50.869Z,19.38
2022-09-14T07:59:35.545Z,19.11
2022-09-14T08:02:08.265Z,18.97
2022-09-14T08:04:39.296Z,19.25
2022-09-14T08:07:09.464Z,19.34
2022-09-14T08:09:40.002Z,19.42
2022-09-14T08:12:09.119Z,19.68
2022-09-14T08:14:39.379Z,20.04
2022-09-14T08:17:10.705Z,19.73
2022-09-14T08:19:41.184Z,19.79
2022-09-14T08:22:10.504Z,19.89
2022-09-14T08:24:40.202Z,20.03
2022-09-14T08:27:12.208Z,19.84
2022-09-14T08:29:43.059Z,20.79
2022-09-14T08:32:13.883Z,21.35
2022-09-14T08:34:43.122Z,21.31
2022-09-14T08:37:13.252Z,20.65
2022-09-14T08:39:42.401Z,20.91
2022-09-14T08:42:16.448Z,21.26
2022-09-14T08:44:53.280Z,21.01
2022-09-14T08:47:28.051Z,20.72
2022-09-14T08:50:01.732Z,21.04
2022-09-14T08:52:37.441Z,20.98
2022-09-14T08:55:24.010Z,21.01
2022-09-14T08:57:58.047Z,20.59
2022-09-14T09:00:37.489Z,20.67
2022-09-14T09:03:38.576Z,21.00
2022-09-14T09:06:16.450Z,21.41
2022-09-14T09:08:58.040Z,21.42
2022-09-14T09:11:35.282Z,20.54
2022-09-14T09:14:09.881Z,20.05
2022-09-14T09:16:40.450Z,20.12
2022-09-14T09:19:18.968Z,20.13
2022-09-14T09:21:49.320Z,20.38
2022-09-14T09:24:26.928Z,20.49
2022-09-14T09:26:56.119Z,20.22
2022-09-14T09:29:25.454Z,20.27
2022-09-14T09:32:19.393Z,20.76
2022-09-14T09:34:54.499Z,21.09
2022-09-14T09:37:50.141Z,20.41
2022-09-14T09:40:22.198Z,20.76
2022-09-14T09:43:08.951Z,21.07
2022-09-14T09:45:55.503Z,21.56
2022-09-14T09:48:28.576Z,20.91
2022-09-14T09:51:08.417Z,21.46
2022-09-14T09:53:41.057Z,22.12
2022-09-14T09:56:17.822Z,22.26
2022-09-14T09:58:51.575Z,22.03
2022-09-14T10:01:24.077Z,22.00
2022-09-14T10:04:06.450Z,21.95
2022-09-14T10:06:44.330Z,22.37
2022-09-14T10:09:18.075Z,23.40
2022-09-14T10:11:48.518Z,22.74
2022-09-14T10:14:25.629Z,24.58
2022-09-14T10:17:05.343Z,24.43
2022-09-14T10:19:36.041Z,23.92
2022-09-14T10:22:24.280Z,23.70
2022-09-14T10:24:58.006Z,23.95
2022-09-14T10:27:48.460Z,23.17
2022-09-14T10:30:19.495Z,23.01
2022-09-14T10:32:57.370Z,22.65
2022-09-14T10:35:38.398Z,23.77
2022-09-14T10:38:24.863Z,24.08
2022-09-14T10:41:05.715Z,22.98
2022-09-14T10:43:45.559Z,23.91
2022-09-14T10:46:20.688Z,24.55
2022-09-14T10:49:13.963Z,26.11
2022-09-14T10:51:54.233Z,26.98
2022-09-14T10:54:45.496Z,26.61
2022-09-14T10:57:21.193Z,24.80
2022-09-14T10:59:56.414Z,24.52
2022-09-14T11:02:45.505Z,25.26
2022-09-14T11:05:22.254Z,26.46
2022-09-14T11:08:06.004Z,29.55
2022-09-14T11:10:45.709Z,30.50
2022-09-14T11:13:34.572Z,27.69
2022-09-14T11:16:16.942Z,27.81
2022-09-14T11:18:55.563Z,26.60
2022-09-14T11:21:37.084Z,25.52
2022-09-14T11:24:15.789Z,24.17
2022-09-14T11:26:51.657Z,23.65
2022-09-14T11:29:25.651Z,22.83
2022-09-14T11:32:19.393Z,22.46
2022-09-14T11:34:54.819Z,22.65
2022-09-14T11:37:31.912Z,22.54
2022-09-14T11:46:25.556Z,24.26
2022-09-14T11:49:02.118Z,25.08
2022-09-14T11:51:37.578Z,24.12
2022-09-14T11:54:16.741Z,22.77
2022-09-14T11:56:49.950Z,23.37
2022-09-14T11:59:37.818Z,23.88
2022-09-14T12:02:54.949Z,24.38
2022-09-14T12:05:35.265Z,25.94
2022-09-14T12:08:26.273Z,26.59
2022-09-14T12:11:34.905Z,27.21
2022-09-14T12:14:34.050Z,28.28
2022-09-14T12:20:44.147Z,25.67
2022-09-14T12:23:31.408Z,25.20
2022-09-14T12:26:39.045Z,25.75
2022-09-14T12:29:26.990Z,27.05
2022-09-14T12:32:05.417Z,27.51
2022-09-14T12:34:35.254Z,25.63
2022-09-14T12:37:28.925Z,25.21
2022-09-14T12:40:36.798Z,25.21
2022-09-14T12:43:50.947Z,24.19
2022-09-14T12:46:39.802Z,24.06
2022-09-14T12:49:31.200Z,23.47
2022-09-14T12:52:18.433Z,23.37
2022-09-14T12:55:02.426Z,22.63
2022-09-14T12:57:40.814Z,22.28
2022-09-14T13:00:15.977Z,21.95
2022-09-14T13:03:20.366Z,22.07
2022-09-14T13:05:49.947Z,23.78
2022-09-14T13:08:25.553Z,23.81
2022-09-14T13:10:54.794Z,24.25
2022-09-14T13:13:28.107Z,23.44
2022-09-14T13:15:59.824Z,22.44
2022-09-14T13:18:32.635Z,22.47
2022-09-14T13:21:04.089Z,22.05
2022-09-14T13:23:40.748Z,23.93
2022-09-14T13:26:16.874Z,24.72
2022-09-14T13:28:48.202Z,31.44
2022-09-14T13:31:23.516Z,29.91
2022-09-14T13:33:54.165Z,29.72
2022-09-14T13:36:25.889Z,31.90
2022-09-14T13:38:57.311Z,28.08
2022-09-14T13:41:26.736Z,26.49
2022-09-14T13:43:57.732Z,25.77
2022-09-14T13:46:29.726Z,24.48
2022-09-14T13:48:58.931Z,25.96
2022-09-14T13:51:31.505Z,24.93
2022-09-14T13:54:20.026Z,24.67
2022-09-14T13:57:12.726Z,23.46
2022-09-14T14:00:17.357Z,22.38
2022-09-14T14:02:49.114Z,21.38
2022-09-14T14:05:27.355Z,21.42
2022-09-14T14:07:58.959Z,21.23
2022-09-14T14:10:33.669Z,20.90
2022-09-14T14:13:03.693Z,20.95
2022-09-14T14:15:39.316Z,21.52
2022-09-14T14:18:31.890Z,21.99
2022-09-14T14:21:17.313Z,22.55
2022-09-14T14:24:02.833Z,22.46
2022-09-14T14:26:37.133Z,22.16
2022-09-14T14:29:10.519Z,22.05
2022-09-14T14:31:39.566Z,21.98
2022-09-14T14:34:19.895Z,21.81
2022-09-14T14:36:50.343Z,21.56
2022-09-14T14:39:21.647Z,21.17
2022-09-14T14:41:53.403Z,20.95
2022-09-14T14:44:26.201Z,20.87
2022-09-14T14:46:55.610Z,20.82
2022-09-14T14:49:25.255Z,20.78
2022-09-14T14:51:54.862Z,20.74
2022-09-14T14:54:23.863Z,21.29
2022-09-14T14:56:54.762Z,21.50
2022-09-14T14:59:29.642Z,22.16
2022-09-14T15:01:59.948Z,21.91
2022-09-14T15:04:29.055Z,21.59
2022-09-14T15:06:57.955Z,21.27
2022-09-14T15:09:29.670Z,21.33
2022-09-14T15:12:00.610Z,21.15
2022-09-14T15:14:30.188Z,21.14
2022-09-14T15:17:00.442Z,20.95
2022-09-14T15:19:30.078Z,20.86
2022-09-14T15:22:01.546Z,20.61
2022-09-14T15:24:31.117Z,20.39
2022-09-14T15:27:02.010Z,20.47
2022-09-14T15:29:30.848Z,20.49
2022-09-14T15:32:00.048Z,20.56
2022-09-14T15:34:30.667Z,21.27
2022-09-14T15:37:00.033Z,22.35
2022-09-14T15:39:31.621Z,24.04
2022-09-14T15:42:03.294Z,24.35
2022-09-14T15:44:33.153Z,22.93
2022-09-14T15:47:02.558Z,23.20
2022-09-14T15:49:31.488Z,22.12
2022-09-14T15:52:00.847Z,21.12
2022-09-14T15:54:38.339Z,21.40
2022-09-14T15:57:12.077Z,20.96
2022-09-14T15:59:41.831Z,20.82
2022-09-14T16:02:12.232Z,20.88
2022-09-14T16:04:41.972Z,20.43
2022-09-14T16:07:11.393Z,20.53
2022-09-14T16:09:41.402Z,20.50
2022-09-14T16:12:13.754Z,20.66
2022-09-14T16:14:43.090Z,20.11
2022-09-14T16:17:12.737Z,20.16
2022-09-14T16:19:41.684Z,20.18
2022-09-14T16:22:11.127Z,19.89
2022-09-14T16:24:40.444Z,19.80
2022-09-14T16:27:09.385Z,19.66
2022-09-14T16:29:41.026Z,19.42
2022-09-14T16:32:10.308Z,19.45
2022-09-14T16:34:39.776Z,19.18
2022-09-14T16:37:08.743Z,19.03
2022-09-14T16:39:37.760Z,19.16
2022-09-14T16:42:07.902Z,19.02
2022-09-14T16:44:37.194Z,18.97
2022-09-14T16:47:07.957Z,18.77
2022-09-14T16:49:39.368Z,18.71
2022-09-14T16:52:08.741Z,18.59
2022-09-14T16:54:38.231Z,18.67
2022-09-14T16:57:07.835Z,18.48
2022-09-14T16:59:37.130Z,18.35
2022-09-14T17:02:10.168Z,18.25
2022-09-14T17:04:39.677Z,18.13
2022-09-14T17:07:09.777Z,18.26
2022-09-14T17:09:41.076Z,18.09
2022-09-14T17:12:11.932Z,18.03
2022-09-14T17:14:42.301Z,18.00
2022-09-14T17:17:14.757Z,18.02
2022-09-14T17:19:44.020Z,17.71
2022-09-14T17:22:14.410Z,17.76
2022-09-14T17:24:44.351Z,17.70
2022-09-14T17:27:13.653Z,17.52
2022-09-14T17:29:43.116Z,17.53
2022-09-14T17:32:15.126Z,17.71
2022-09-14T17:34:45.077Z,17.41
2022-09-14T17:37:14.864Z,17.42
2022-09-14T17:39:44.080Z,17.46
2022-09-14T17:42:13.683Z,17.29
2022-09-14T17:44:43.668Z,17.28
2022-09-14T17:47:14.537Z,17.17
2022-09-14T17:49:44.024Z,17.24
2022-09-14T17:52:13.392Z,17.28
2022-09-14T17:54:42.526Z,17.32
2022-09-14T17:57:12.054Z,17.37
2022-09-14T17:59:44.430Z,17.46
2022-09-14T18:02:15.697Z,17.42
2022-09-14T18:04:48.579Z,17.40
2022-09-14T18:07:18.452Z,17.28
2022-09-14T18:09:48.237Z,17.37
2022-09-14T18:12:18.716Z,17.35
2022-09-14T18:14:48.603Z,17.42
2022-09-14T18:17:19.741Z,17.52
2022-09-14T18:19:54.283Z,17.28
2022-09-14T18:22:23.640Z,17.29
2022-09-14T18:24:53.373Z,17.32
2022-09-14T18:27:22.652Z,17.08
2022-09-14T18:29:52.094Z,17.32
2022-09-14T18:32:22.771Z,17.39
2022-09-14T18:34:52.530Z,17.36
2022-09-14T18:37:23.255Z,17.38
2022-09-14T18:39:52.912Z,17.36
2022-09-14T18:42:23.768Z,17.40
2022-09-14T18:44:55.635Z,17.37
2022-09-14T18:47:28.785Z,17.39
2022-09-14T18:50:00.922Z,17.47
2022-09-14T18:52:30.048Z,17.59
2022-09-14T18:54:59.587Z,17.43
2022-09-14T18:57:29.110Z,17.33
2022-09-14T18:59:58.255Z,17.35
2022-09-14T19:02:29.121Z,17.44
2022-09-14T19:04:58.669Z,17.45
2022-09-14T19:07:28.426Z,17.46
2022-09-14T19:10:01.141Z,17.43
2022-09-14T19:12:30.739Z,17.42
2022-09-14T19:14:59.782Z,17.42
2022-09-14T19:17:31.280Z,17.56
2022-09-14T19:20:00.739Z,17.57
2022-09-14T19:22:30.474Z,17.46
2022-09-14T19:24:59.762Z,17.50
2022-09-14T19:27:29.608Z,17.44
2022-09-14T19:30:00.107Z,17.48
2022-09-14T19:32:30.931Z,17.52
2022-09-14T19:35:01.691Z,17.50
2022-09-14T19:37:31.652Z,17.29
2022-09-14T19:40:00.691Z,17.47
2022-09-14T19:42:29.935Z,17.46
2022-09-14T19:44:58.967Z,17.50
2022-09-14T19:47:32.265Z,17.52
2022-09-14T19:50:01.732Z,17.49
2022-09-14T19:52:31.051Z,17.49
2022-09-14T19:55:02.173Z,17.50
2022-09-14T19:57:37.540Z,17.36
2022-09-14T20:00:09.403Z,17.52
2022-09-14T20:02:46.935Z,17.64
2022-09-14T20:05:16.780Z,17.54
2022-09-14T20:07:46.052Z,17.68
2022-09-14T20:10:18.401Z,17.81
2022-09-14T20:12:47.869Z,17.69
2022-09-14T20:15:17.365Z,17.67
2022-09-14T20:17:47.749Z,17.48
2022-09-14T20:20:17.289Z,17.58
2022-09-14T20:22:46.281Z,17.53
2022-09-14T20:25:15.378Z,17.45
2022-09-14T20:27:44.782Z,17.50
2022-09-14T20:30:14.500Z,17.63
2022-09-14T20:32:43.922Z,17.52
2022-09-14T20:35:14.756Z,17.54
2022-09-14T20:37:45.175Z,17.44
2022-09-14T20:40:14.645Z,17.51
2022-09-14T20:42:43.649Z,17.58
2022-09-14T20:45:13.202Z,17.47
2022-09-14T20:47:43.714Z,17.36
2022-09-14T20:50:14.255Z,17.21
2022-09-14T20:52:43.820Z,17.24
2022-09-14T20:55:12.811Z,17.29
2022-09-14T20:57:42.829Z,17.31
2022-09-14T21:00:13.900Z,17.21
2022-09-14T21:02:45.393Z,17.28
2022-09-14T21:05:16.926Z,17.32
2022-09-14T21:07:56.005Z,16.98
2022-09-14T21:10:30.023Z,17.09
2022-09-14T21:12:59.446Z,17.26
2022-09-14T21:15:29.717Z,17.05
2022-09-14T21:18:02.473Z,17.16
2022-09-14T21:20:43.588Z,17.16
2022-09-14T21:23:17.758Z,17.12
2022-09-14T21:25:57.180Z,17.18
2022-09-14T21:28:27.710Z,17.08
2022-09-14T21:31:15.319Z,17.14
2022-09-14T21:33:46.993Z,16.93
2022-09-14T21:36:20.788Z,17.10
2022-09-14T21:38:51.594Z,16.96
2022-09-14T21:41:23.569Z,17.24
2022-09-14T21:43:54.927Z,17.09
2022-09-14T21:46:25.449Z,17.29
2022-09-14T21:48:57.107Z,17.19
2022-09-14T21:51:29.994Z,17.20
2022-09-14T21:54:01.797Z,17.25
2022-09-14T21:56:33.269Z,17.30
2022-09-14T21:59:10.170Z,17.35
2022-09-14T22:01:41.974Z,17.36
2022-09-14T22:04:15.018Z,17.14
2022-09-14T22:06:48.208Z,17.41
2022-09-14T22:09:20.937Z,17.39
2022-09-14T22:11:51.657Z,17.41
2022-09-14T22:14:23.099Z,17.35
2022-09-14T22:16:53.962Z,17.31
2022-09-14T22:19:26.472Z,17.48
2022-09-14T22:21:57.962Z,17.29
2022-09-14T22:24:36.991Z,17.44
2022-09-14T22:27:09.159Z,17.39
2022-09-14T22:29:40.931Z,17.52
2022-09-14T22:32:12.104Z,17.57
2022-09-14T22:34:44.669Z,17.37
2022-09-14T22:37:18.358Z,17.26
2022-09-14T22:39:48.111Z,17.22
2022-09-14T22:42:17.644Z,17.26
2022-09-14T22:44:46.927Z,17.21
2022-09-14T22:47:16.227Z,17.33
2022-09-14T22:49:45.688Z,17.21
2022-09-14T22:52:14.934Z,17.22
2022-09-14T22:54:45.607Z,17.34
2022-09-14T22:57:15.351Z,17.35
2022-09-14T22:59:44.890Z,17.47
2022-09-14T23:02:14.100Z,17.40
2022-09-14T23:04:43.790Z,17.33
2022-09-14T23:07:13.239Z,17.05
2022-09-14T23:09:42.691Z,17.17
2022-09-14T23:12:13.462Z,17.20
2022-09-14T23:14:43.017Z,17.10
2022-09-14T23:17:13.122Z,16.91
2022-09-14T23:19:42.595Z,16.94
2022-09-14T23:22:12.263Z,17.10
2022-09-14T23:24:41.908Z,17.17
2022-09-14T23:27:12.709Z,17.09
2022-09-14T23:29:42.701Z,17.20
2022-09-14T23:32:12.044Z,17.16
2022-09-14T23:34:41.436Z,17.29
2022-09-14T23:37:11.670Z,17.29
2022-09-14T23:39:40.954Z,17.24
2022-09-14T23:42:10.559Z,17.25
2022-09-14T23:44:41.217Z,17.26
2022-09-14T23:47:10.486Z,17.23
2022-09-14T23:49:39.470Z,17.25
2022-09-14T23:52:08.678Z,17.14
2022-09-14T23:54:37.758Z,16.89
2022-09-14T23:57:07.014Z,17.10
2022-09-14T23:59:36.166Z,17.07
